sensor_id;sensor_type;location;lat;lon;timestamp;pressure;altitude;pressure_sealevel;temperature;humidity
50977;BME280;36992;48.200;12.418;2023-07-31T00:00:23;96867.91;;;22.97;40.35
50977;BME280;36992;48.200;12.418;2023-07-31T00:02:51;96874.50;;;22.93;39.85
50977;BME280;36992;48.200;12.418;2023-07-31T00:05:18;96870.91;;;22.88;41.02
50977;BME280;36992;48.200;12.418;2023-07-31T00:07:44;96873.63;;;22.85;40.25
50977;BME280;36992;48.200;12.418;2023-07-31T00:10:11;96881.41;;;22.83;39.62
50977;BME280;36992;48.200;12.418;2023-07-31T00:12:41;96877.88;;;22.82;40.96
50977;BME280;36992;48.200;12.418;2023-07-31T00:15:09;96878.19;;;22.77;39.72
50977;BME280;36992;48.200;12.418;2023-07-31T00:17:36;96875.75;;;22.72;40.89
50977;BME280;36992;48.200;12.418;2023-07-31T00:20:03;96867.88;;;22.70;40.86
50977;BME280;36992;48.200;12.418;2023-07-31T00:22:30;96868.63;;;22.67;40.74
50977;BME280;36992;48.200;12.418;2023-07-31T00:24:56;96865.47;;;22.65;40.16
50977;BME280;36992;48.200;12.418;2023-07-31T00:27:24;96863.88;;;22.64;41.60
50977;BME280;36992;48.200;12.418;2023-07-31T00:29:52;96863.88;;;22.64;40.52
50977;BME280;36992;48.200;12.418;2023-07-31T00:32:18;96861.88;;;22.61;40.57
50977;BME280;36992;48.200;12.418;2023-07-31T00:34:45;96865.34;;;22.58;41.22
50977;BME280;36992;48.200;12.418;2023-07-31T00:37:11;96864.94;;;22.56;41.43
50977;BME280;36992;48.200;12.418;2023-07-31T00:39:38;96865.28;;;22.54;40.38
50977;BME280;36992;48.200;12.418;2023-07-31T00:42:05;96865.22;;;22.50;40.30
50977;BME280;36992;48.200;12.418;2023-07-31T00:44:31;96855.34;;;22.46;40.78
50977;BME280;36992;48.200;12.418;2023-07-31T00:46:59;96862.00;;;22.45;41.00
50977;BME280;36992;48.200;12.418;2023-07-31T00:49:26;96861.50;;;22.39;39.92
50977;BME280;36992;48.200;12.418;2023-07-31T00:51:53;96846.94;;;22.35;41.01
50977;BME280;36992;48.200;12.418;2023-07-31T00:54:22;96849.63;;;22.31;41.52
50977;BME280;36992;48.200;12.418;2023-07-31T00:56:50;96856.69;;;22.32;41.88
50977;BME280;36992;48.200;12.418;2023-07-31T00:59:19;96849.97;;;22.30;42.13
50977;BME280;36992;48.200;12.418;2023-07-31T01:01:45;96857.41;;;22.29;42.41
50977;BME280;36992;48.200;12.418;2023-07-31T01:04:14;96859.78;;;22.31;42.18
50977;BME280;36992;48.200;12.418;2023-07-31T01:06:45;96850.84;;;22.34;41.64
50977;BME280;36992;48.200;12.418;2023-07-31T01:09:20;96839.47;;;22.35;42.01
50977;BME280;36992;48.200;12.418;2023-07-31T01:11:52;96839.47;;;22.35;42.13
50977;BME280;36992;48.200;12.418;2023-07-31T01:14:19;96842.97;;;22.32;41.75
50977;BME280;36992;48.200;12.418;2023-07-31T01:16:45;96842.97;;;22.32;41.45
50977;BME280;36992;48.200;12.418;2023-07-31T01:19:15;96841.44;;;22.35;42.07
50977;BME280;36992;48.200;12.418;2023-07-31T01:24:55;96823.81;;;22.36;41.56
50977;BME280;36992;48.200;12.418;2023-07-31T01:27:30;96828.09;;;22.33;41.79
50977;BME280;36992;48.200;12.418;2023-07-31T01:30:03;96822.97;;;22.32;42.07
50977;BME280;36992;48.200;12.418;2023-07-31T01:32:35;96815.41;;;22.25;42.34
50977;BME280;36992;48.200;12.418;2023-07-31T01:35:03;96816.94;;;22.22;42.59
50977;BME280;36992;48.200;12.418;2023-07-31T01:37:29;96816.09;;;22.18;42.10
50977;BME280;36992;48.200;12.418;2023-07-31T01:39:56;96815.66;;;22.16;42.51
50977;BME280;36992;48.200;12.418;2023-07-31T01:42:22;96817.97;;;22.14;42.20
50977;BME280;36992;48.200;12.418;2023-07-31T01:44:50;96819.13;;;22.13;42.54
50977;BME280;36992;48.200;12.418;2023-07-31T01:47:17;96806.53;;;22.08;42.66
50977;BME280;36992;48.200;12.418;2023-07-31T01:49:43;96811.94;;;22.05;42.89
50977;BME280;36992;48.200;12.418;2023-07-31T01:52:09;96805.66;;;22.04;43.06
50977;BME280;36992;48.200;12.418;2023-07-31T01:54:36;96811.88;;;22.01;42.48
50977;BME280;36992;48.200;12.418;2023-07-31T01:57:03;96809.50;;;22.00;42.74
50977;BME280;36992;48.200;12.418;2023-07-31T01:59:29;96808.72;;;21.99;43.27
50977;BME280;36992;48.200;12.418;2023-07-31T02:01:57;96806.34;;;21.98;41.96
50977;BME280;36992;48.200;12.418;2023-07-31T02:04:23;96807.06;;;21.94;42.52
50977;BME280;36992;48.200;12.418;2023-07-31T02:06:50;96803.91;;;21.92;42.78
50977;BME280;36992;48.200;12.418;2023-07-31T02:09:16;96810.91;;;21.90;42.63
50977;BME280;36992;48.200;12.418;2023-07-31T02:11:42;96805.78;;;21.88;43.69
50977;BME280;36992;48.200;12.418;2023-07-31T02:14:08;96799.88;;;21.86;44.03
50977;BME280;36992;48.200;12.418;2023-07-31T02:16:35;96799.06;;;21.86;43.50
50977;BME280;36992;48.200;12.418;2023-07-31T02:19:03;96792.81;;;21.85;43.73
50977;BME280;36992;48.200;12.418;2023-07-31T02:21:29;96790.78;;;21.82;43.78
50977;BME280;36992;48.200;12.418;2023-07-31T02:23:55;96791.94;;;21.81;43.58
50977;BME280;36992;48.200;12.418;2023-07-31T02:26:22;96790.72;;;21.78;43.68
50977;BME280;36992;48.200;12.418;2023-07-31T02:28:48;96793.81;;;21.77;43.49
50977;BME280;36992;48.200;12.418;2023-07-31T02:31:15;96787.91;;;21.75;43.76
50977;BME280;36992;48.200;12.418;2023-07-31T02:33:41;96790.25;;;21.73;44.15
50977;BME280;36992;48.200;12.418;2023-07-31T02:36:09;96791.00;;;21.73;43.76
50977;BME280;36992;48.200;12.418;2023-07-31T02:38:35;96787.84;;;21.71;43.89
50977;BME280;36992;48.200;12.418;2023-07-31T02:41:02;96783.84;;;21.68;44.07
50977;BME280;36992;48.200;12.418;2023-07-31T02:43:28;96784.59;;;21.65;44.26
50977;BME280;36992;48.200;12.418;2023-07-31T02:45:55;96784.59;;;21.65;44.03
50977;BME280;36992;48.200;12.418;2023-07-31T02:48:21;96775.16;;;21.63;44.05
50977;BME280;36992;48.200;12.418;2023-07-31T02:50:48;96772.78;;;21.61;44.31
50977;BME280;36992;48.200;12.418;2023-07-31T02:53:16;96772.78;;;21.61;43.85
50977;BME280;36992;48.200;12.418;2023-07-31T02:55:42;96775.44;;;21.58;44.48
50977;BME280;36992;48.200;12.418;2023-07-31T02:58:08;96781.28;;;21.56;44.43
50977;BME280;36992;48.200;12.418;2023-07-31T03:00:35;96773.81;;;21.53;44.96
50977;BME280;36992;48.200;12.418;2023-07-31T03:03:01;96767.88;;;21.51;44.32
50977;BME280;36992;48.200;12.418;2023-07-31T03:05:28;96767.44;;;21.49;44.75
50977;BME280;36992;48.200;12.418;2023-07-31T03:07:54;96771.72;;;21.46;44.86
50977;BME280;36992;48.200;12.418;2023-07-31T03:10:22;96770.13;;;21.45;44.42
50977;BME280;36992;48.200;12.418;2023-07-31T03:12:49;96777.13;;;21.42;44.97
50977;BME280;36992;48.200;12.418;2023-07-31T03:15:15;96766.09;;;21.39;45.44
50977;BME280;36992;48.200;12.418;2023-07-31T03:17:42;96770.00;;;21.38;45.55
50977;BME280;36992;48.200;12.418;2023-07-31T03:20:09;96755.84;;;21.36;45.29
50977;BME280;36992;48.200;12.418;2023-07-31T03:22:36;96771.50;;;21.35;45.31
50977;BME280;36992;48.200;12.418;2023-07-31T03:25:03;96772.69;;;21.34;45.33
50977;BME280;36992;48.200;12.418;2023-07-31T03:27:31;96772.28;;;21.36;45.29
50977;BME280;36992;48.200;12.418;2023-07-31T03:29:59;96768.31;;;21.33;44.94
50977;BME280;36992;48.200;12.418;2023-07-31T03:32:26;96759.34;;;21.33;45.53
50977;BME280;36992;48.200;12.418;2023-07-31T03:34:52;96771.44;;;21.32;45.35
50977;BME280;36992;48.200;12.418;2023-07-31T03:37:19;96768.25;;;21.29;45.58
50977;BME280;36992;48.200;12.418;2023-07-31T03:39:45;96769.41;;;21.28;45.71
50977;BME280;36992;48.200;12.418;2023-07-31T03:42:12;96776.84;;;21.28;45.68
50977;BME280;36992;48.200;12.418;2023-07-31T03:44:39;96778.44;;;21.29;45.76
50977;BME280;36992;48.200;12.418;2023-07-31T03:47:06;96769.00;;;21.26;45.78
50977;BME280;36992;48.200;12.418;2023-07-31T03:49:32;96782.69;;;21.26;45.71
50977;BME280;36992;48.200;12.418;2023-07-31T03:51:59;96783.03;;;21.25;45.82
50977;BME280;36992;48.200;12.418;2023-07-31T03:54:25;96775.19;;;21.23;45.71
50977;BME280;36992;48.200;12.418;2023-07-31T03:56:52;96782.63;;;21.23;45.65
50977;BME280;36992;48.200;12.418;2023-07-31T03:59:18;96775.91;;;21.20;45.88
50977;BME280;36992;48.200;12.418;2023-07-31T04:01:46;96775.09;;;21.20;45.98
50977;BME280;36992;48.200;12.418;2023-07-31T04:04:12;96774.28;;;21.15;45.63
50977;BME280;36992;48.200;12.418;2023-07-31T04:06:39;96774.97;;;21.12;45.71
50977;BME280;36992;48.200;12.418;2023-07-31T04:09:05;96779.59;;;21.08;46.06
50977;BME280;36992;48.200;12.418;2023-07-31T04:11:32;96782.69;;;21.07;46.24
50977;BME280;36992;48.200;12.418;2023-07-31T04:13:58;96774.03;;;21.05;46.18
50977;BME280;36992;48.200;12.418;2023-07-31T04:16:25;96778.72;;;21.04;46.51
50977;BME280;36992;48.200;12.418;2023-07-31T04:18:53;96771.28;;;21.05;46.67
50977;BME280;36992;48.200;12.418;2023-07-31T04:21:19;96781.47;;;21.04;46.30
50977;BME280;36992;48.200;12.418;2023-07-31T04:23:46;96768.56;;;21.05;46.50
50977;BME280;36992;48.200;12.418;2023-07-31T04:26:12;96769.34;;;21.05;46.86
50977;BME280;36992;48.200;12.418;2023-07-31T04:28:38;96770.94;;;21.06;46.50
50977;BME280;36992;48.200;12.418;2023-07-31T04:31:05;96765.47;;;21.06;46.54
50977;BME280;36992;48.200;12.418;2023-07-31T04:33:32;96765.47;;;21.06;46.55
50977;BME280;36992;48.200;12.418;2023-07-31T04:36:00;96769.44;;;21.09;46.64
50977;BME280;36992;48.200;12.418;2023-07-31T04:38:26;96762.38;;;21.08;46.78
50977;BME280;36992;48.200;12.418;2023-07-31T04:40:53;96767.03;;;21.07;46.84
50977;BME280;36992;48.200;12.418;2023-07-31T04:43:19;96761.56;;;21.07;46.63
50977;BME280;36992;48.200;12.418;2023-07-31T04:45:46;96757.69;;;21.08;46.99
50977;BME280;36992;48.200;12.418;2023-07-31T04:48:13;96756.09;;;21.07;46.69
50977;BME280;36992;48.200;12.418;2023-07-31T04:50:40;96748.25;;;21.06;46.72
50977;BME280;36992;48.200;12.418;2023-07-31T04:53:08;96752.22;;;21.08;46.89
50977;BME280;36992;48.200;12.418;2023-07-31T04:55:34;96752.94;;;21.05;47.01
50977;BME280;36992;48.200;12.418;2023-07-31T04:58:00;96751.34;;;21.04;46.96
50977;BME280;36992;48.200;12.418;2023-07-31T05:00:27;96748.97;;;21.02;47.52
50977;BME280;36992;48.200;12.418;2023-07-31T05:02:53;96751.28;;;21.00;47.32
50977;BME280;36992;48.200;12.418;2023-07-31T05:05:20;96752.44;;;20.99;47.32
50977;BME280;36992;48.200;12.418;2023-07-31T05:07:46;96754.72;;;20.97;47.23
50977;BME280;36992;48.200;12.418;2023-07-31T05:10:14;96744.56;;;20.98;47.01
50977;BME280;36992;48.200;12.418;2023-07-31T05:12:41;96755.09;;;20.96;47.42
50977;BME280;36992;48.200;12.418;2023-07-31T05:15:08;96751.19;;;20.97;47.24
50977;BME280;36992;48.200;12.418;2023-07-31T05:17:35;96745.72;;;20.97;47.49
50977;BME280;36992;48.200;12.418;2023-07-31T05:20:01;96740.25;;;20.97;47.34
50977;BME280;36992;48.200;12.418;2023-07-31T05:22:28;96741.84;;;20.98;47.55
50977;BME280;36992;48.200;12.418;2023-07-31T05:24:55;96741.84;;;20.98;47.51
50977;BME280;36992;48.200;12.418;2023-07-31T05:27:23;96745.00;;;21.00;47.59
50977;BME280;36992;48.200;12.418;2023-07-31T05:29:49;96741.84;;;20.98;47.64
50977;BME280;36992;48.200;12.418;2023-07-31T05:32:15;96733.63;;;20.98;47.54
50977;BME280;36992;48.200;12.418;2023-07-31T05:34:42;96746.50;;;20.97;47.43
50977;BME280;36992;48.200;12.418;2023-07-31T05:37:09;96736.34;;;20.98;47.50
50977;BME280;36992;48.200;12.418;2023-07-31T05:39:36;96730.88;;;20.98;47.50
50977;BME280;36992;48.200;12.418;2023-07-31T05:42:03;96737.50;;;20.97;47.55
50977;BME280;36992;48.200;12.418;2023-07-31T05:44:31;96739.53;;;21.00;47.58
50977;BME280;36992;48.200;12.418;2023-07-31T05:46:57;96740.69;;;20.99;47.77
50977;BME280;36992;48.200;12.418;2023-07-31T05:49:24;96737.94;;;20.99;47.83
50977;BME280;36992;48.200;12.418;2023-07-31T05:51:50;96737.13;;;20.98;47.99
50977;BME280;36992;48.200;12.418;2023-07-31T05:54:17;96749.69;;;20.99;47.87
50977;BME280;36992;48.200;12.418;2023-07-31T05:56:43;96742.25;;;21.00;47.97
50977;BME280;36992;48.200;12.418;2023-07-31T05:59:09;96738.34;;;21.01;47.92
50977;BME280;36992;48.200;12.418;2023-07-31T06:01:37;96743.13;;;21.04;48.06
50977;BME280;36992;48.200;12.418;2023-07-31T06:04:04;96735.69;;;21.05;48.00
50977;BME280;36992;48.200;12.418;2023-07-31T06:06:30;96734.19;;;21.07;47.92
50977;BME280;36992;48.200;12.418;2023-07-31T06:08:57;96733.81;;;21.09;47.75
50977;BME280;36992;48.200;12.418;2023-07-31T06:11:23;96735.84;;;21.12;48.01
50977;BME280;36992;48.200;12.418;2023-07-31T06:13:50;96735.13;;;21.15;48.26
50977;BME280;36992;48.200;12.418;2023-07-31T06:16:16;96728.13;;;21.18;48.06
50977;BME280;36992;48.200;12.418;2023-07-31T06:18:44;96725.88;;;21.23;47.80
50977;BME280;36992;48.200;12.418;2023-07-31T06:21:10;96727.09;;;21.26;47.84
50977;BME280;36992;48.200;12.418;2023-07-31T06:23:37;96724.44;;;21.29;47.94
50977;BME280;36992;48.200;12.418;2023-07-31T06:26:03;96727.22;;;21.33;48.02
50977;BME280;36992;48.200;12.418;2023-07-31T06:28:31;96728.47;;;21.36;48.03
50977;BME280;36992;48.200;12.418;2023-07-31T06:30:58;96730.91;;;21.41;47.52
50977;BME280;36992;48.200;12.418;2023-07-31T06:33:25;96733.34;;;21.46;47.39
50977;BME280;36992;48.200;12.418;2023-07-31T06:35:53;96730.69;;;21.50;47.52
50977;BME280;36992;48.200;12.418;2023-07-31T06:38:22;96730.78;;;21.57;47.01
50977;BME280;36992;48.200;12.418;2023-07-31T06:40:50;96729.63;;;21.58;47.13
50977;BME280;36992;48.200;12.418;2023-07-31T06:43:16;96732.06;;;21.63;47.63
50977;BME280;36992;48.200;12.418;2023-07-31T06:45:43;96736.50;;;21.68;46.76
50977;BME280;36992;48.200;12.418;2023-07-31T06:48:09;96739.75;;;21.74;47.22
50977;BME280;36992;48.200;12.418;2023-07-31T06:50:36;96740.59;;;21.78;47.01
50977;BME280;36992;48.200;12.418;2023-07-31T06:53:04;96739.13;;;21.84;46.45
50977;BME280;36992;48.200;12.418;2023-07-31T06:55:30;96738.38;;;21.87;46.50
50977;BME280;36992;48.200;12.418;2023-07-31T06:57:57;96742.00;;;21.91;46.31
50977;BME280;36992;48.200;12.418;2023-07-31T07:00:23;96734.97;;;21.94;46.37
50977;BME280;36992;48.200;12.418;2023-07-31T07:02:50;96740.53;;;21.98;46.28
50977;BME280;36992;48.200;12.418;2023-07-31T07:05:17;96744.91;;;22.02;46.28
50977;BME280;36992;48.200;12.418;2023-07-31T07:07:44;96741.06;;;22.07;45.79
50977;BME280;36992;48.200;12.418;2023-07-31T07:10:12;96740.75;;;22.12;45.66
50977;BME280;36992;48.200;12.418;2023-07-31T07:12:39;96740.03;;;22.15;45.97
50977;BME280;36992;48.200;12.418;2023-07-31T07:15:06;96740.84;;;22.19;45.44
50977;BME280;36992;48.200;12.418;2023-07-31T07:17:33;96746.03;;;22.24;45.49
50977;BME280;36992;48.200;12.418;2023-07-31T07:19:59;96736.28;;;22.27;45.68
50977;BME280;36992;48.200;12.418;2023-07-31T07:22:27;96724.94;;;22.29;45.62
50977;BME280;36992;48.200;12.418;2023-07-31T07:24:53;96728.50;;;22.33;45.33
50977;BME280;36992;48.200;12.418;2023-07-31T07:27:21;96719.19;;;22.37;45.04
50977;BME280;36992;48.200;12.418;2023-07-31T07:29:50;96724.72;;;22.41;45.27
50977;BME280;36992;48.200;12.418;2023-07-31T07:32:16;96717.66;;;22.40;44.67
50977;BME280;36992;48.200;12.418;2023-07-31T07:34:43;96707.09;;;22.42;45.47
50977;BME280;36992;48.200;12.418;2023-07-31T07:37:10;96712.63;;;22.46;45.32
50977;BME280;36992;48.200;12.418;2023-07-31T07:39:37;96708.34;;;22.48;44.96
50977;BME280;36992;48.200;12.418;2023-07-31T07:42:04;96702.94;;;22.52;44.56
50977;BME280;36992;48.200;12.418;2023-07-31T07:44:32;96696.72;;;22.55;43.95
50977;BME280;36992;48.200;12.418;2023-07-31T07:46:58;96697.91;;;22.58;44.19
50977;BME280;36992;48.200;12.418;2023-07-31T07:49:25;96694.78;;;22.59;43.82
50977;BME280;36992;48.200;12.418;2023-07-31T07:51:51;96701.50;;;22.62;44.08
50977;BME280;36992;48.200;12.418;2023-07-31T07:54:17;96704.66;;;22.64;44.29
50977;BME280;36992;48.200;12.418;2023-07-31T07:56:45;96703.91;;;22.67;44.18
50977;BME280;36992;48.200;12.418;2023-07-31T07:59:11;96704.78;;;22.71;44.29
50977;BME280;36992;48.200;12.418;2023-07-31T08:01:39;96704.81;;;22.75;44.30
50977;BME280;36992;48.200;12.418;2023-07-31T08:04:06;96710.34;;;22.79;43.89
50977;BME280;36992;48.200;12.418;2023-07-31T08:06:32;96706.44;;;22.80;44.09
50977;BME280;36992;48.200;12.418;2023-07-31T08:08:59;96705.66;;;22.83;43.51
50977;BME280;36992;48.200;12.418;2023-07-31T08:11:30;96695.13;;;22.85;44.26
50977;BME280;36992;48.200;12.418;2023-07-31T08:13:57;96690.03;;;22.87;44.25
50977;BME280;36992;48.200;12.418;2023-07-31T08:16:23;96692.06;;;22.90;43.73
50977;BME280;36992;48.200;12.418;2023-07-31T08:18:51;96697.16;;;22.91;43.88
50977;BME280;36992;48.200;12.418;2023-07-31T08:21:17;96694.84;;;22.94;43.90
50977;BME280;36992;48.200;12.418;2023-07-31T08:23:44;96694.44;;;22.95;44.04
50977;BME280;36992;48.200;12.418;2023-07-31T08:26:14;96695.31;;;23.03;44.09
50977;BME280;36992;48.200;12.418;2023-07-31T08:28:41;96690.63;;;23.03;44.26
50977;BME280;36992;48.200;12.418;2023-07-31T08:31:07;96689.09;;;23.06;44.24
50977;BME280;36992;48.200;12.418;2023-07-31T08:33:34;96691.06;;;23.09;44.26
50977;BME280;36992;48.200;12.418;2023-07-31T08:36:02;96678.53;;;23.12;44.19
50977;BME280;36992;48.200;12.418;2023-07-31T08:38:29;96687.19;;;23.14;44.28
50977;BME280;36992;48.200;12.418;2023-07-31T08:40:56;96678.63;;;23.19;44.08
50977;BME280;36992;48.200;12.418;2023-07-31T08:43:25;96684.19;;;23.26;44.06
50977;BME280;36992;48.200;12.418;2023-07-31T08:45:52;96686.63;;;23.31;44.24
50977;BME280;36992;48.200;12.418;2023-07-31T08:48:20;96679.63;;;23.38;43.72
50977;BME280;36992;48.200;12.418;2023-07-31T08:50:47;96680.84;;;23.44;43.53
50977;BME280;36992;48.200;12.418;2023-07-31T08:53:15;96673.47;;;23.52;43.28
50977;BME280;36992;48.200;12.418;2023-07-31T08:55:43;96681.38;;;23.57;43.36
50977;BME280;36992;48.200;12.418;2023-07-31T08:58:12;96681.47;;;23.68;43.14
50977;BME280;36992;48.200;12.418;2023-07-31T09:00:39;96678.75;;;23.71;43.02
50977;BME280;36992;48.200;12.418;2023-07-31T09:03:09;96683.91;;;23.80;42.77
50977;BME280;36992;48.200;12.418;2023-07-31T09:05:36;96675.69;;;23.84;42.53
50977;BME280;36992;48.200;12.418;2023-07-31T09:08:05;96680.03;;;23.89;42.15
50977;BME280;36992;48.200;12.418;2023-07-31T09:10:33;96680.09;;;23.96;41.35
50977;BME280;36992;48.200;12.418;2023-07-31T09:13:00;96666.75;;;23.98;41.38
50977;BME280;36992;48.200;12.418;2023-07-31T09:15:27;96675.44;;;24.04;40.85
50977;BME280;36992;48.200;12.418;2023-07-31T09:17:59;96675.13;;;24.13;41.56
50977;BME280;36992;48.200;12.418;2023-07-31T09:20:26;96668.47;;;24.14;40.97
50977;BME280;36992;48.200;12.418;2023-07-31T09:22:52;96666.16;;;24.19;40.10
50977;BME280;36992;48.200;12.418;2023-07-31T09:25:20;96657.94;;;24.27;39.67
50977;BME280;36992;48.200;12.418;2023-07-31T09:27:50;96649.72;;;24.37;40.89
50977;BME280;36992;48.200;12.418;2023-07-31T09:30:18;96656.06;;;24.42;39.68
50977;BME280;36992;48.200;12.418;2023-07-31T09:32:45;96647.44;;;24.47;39.61
50977;BME280;36992;48.200;12.418;2023-07-31T09:35:14;96658.47;;;24.54;39.27
50977;BME280;36992;48.200;12.418;2023-07-31T09:37:48;96659.31;;;24.62;39.97
50977;BME280;36992;48.200;12.418;2023-07-31T09:40:25;96651.06;;;24.69;40.14
50977;BME280;36992;48.200;12.418;2023-07-31T09:42:53;96662.47;;;24.68;38.71
50977;BME280;36992;48.200;12.418;2023-07-31T09:45:20;96657.75;;;24.68;38.69
50977;BME280;36992;48.200;12.418;2023-07-31T09:47:47;96652.25;;;24.72;38.09
50977;BME280;36992;48.200;12.418;2023-07-31T09:50:14;96654.22;;;24.71;37.44
50977;BME280;36992;48.200;12.418;2023-07-31T09:52:41;96642.00;;;24.69;37.56
50977;BME280;36992;48.200;12.418;2023-07-31T09:55:08;96648.28;;;24.65;38.14
50977;BME280;36992;48.200;12.418;2023-07-31T09:57:38;96646.31;;;24.66;38.31
50977;BME280;36992;48.200;12.418;2023-07-31T10:00:08;96644.34;;;24.63;40.22
50977;BME280;36992;48.200;12.418;2023-07-31T10:02:36;96632.53;;;24.59;41.56
50977;BME280;36992;48.200;12.418;2023-07-31T10:05:04;96633.69;;;24.54;40.83
50977;BME280;36992;48.200;12.418;2023-07-31T10:07:31;96631.31;;;24.49;39.89
50977;BME280;36992;48.200;12.418;2023-07-31T10:10:00;96621.47;;;24.48;40.90
50977;BME280;36992;48.200;12.418;2023-07-31T10:12:27;96629.31;;;24.46;40.15
50977;BME280;36992;48.200;12.418;2023-07-31T10:14:54;96623.78;;;24.42;39.74
50977;BME280;36992;48.200;12.418;2023-07-31T10:17:23;96629.72;;;24.41;39.47
50977;BME280;36992;48.200;12.418;2023-07-31T10:19:49;96623.00;;;24.38;38.98
50977;BME280;36992;48.200;12.418;2023-07-31T10:22:16;96623.00;;;24.34;39.60
50977;BME280;36992;48.200;12.418;2023-07-31T10:24:44;96611.19;;;24.34;39.33
50977;BME280;36992;48.200;12.418;2023-07-31T10:27:11;96611.97;;;24.31;38.84
50977;BME280;36992;48.200;12.418;2023-07-31T10:29:40;96598.97;;;24.31;39.42
50977;BME280;36992;48.200;12.418;2023-07-31T10:32:08;96602.91;;;24.30;39.45
50977;BME280;36992;48.200;12.418;2023-07-31T10:34:39;96596.63;;;24.33;39.35
50977;BME280;36992;48.200;12.418;2023-07-31T10:37:23;96591.53;;;24.39;39.57
50977;BME280;36992;48.200;12.418;2023-07-31T10:39:58;96579.75;;;24.38;39.39
50977;BME280;36992;48.200;12.418;2023-07-31T10:42:32;96585.25;;;24.46;39.55
50977;BME280;36992;48.200;12.418;2023-07-31T10:45:01;96585.69;;;24.48;39.16
50977;BME280;36992;48.200;12.418;2023-07-31T10:47:28;96588.06;;;24.53;39.64
50977;BME280;36992;48.200;12.418;2023-07-31T10:50:21;96579.03;;;24.63;39.52
50977;BME280;36992;48.200;12.418;2023-07-31T10:52:50;96572.75;;;24.67;38.80
50977;BME280;36992;48.200;12.418;2023-07-31T10:55:28;96575.16;;;24.79;38.84
50977;BME280;36992;48.200;12.418;2023-07-31T10:57:56;96574.34;;;24.78;36.98
50977;BME280;36992;48.200;12.418;2023-07-31T11:00:26;96575.59;;;24.85;37.82
50977;BME280;36992;48.200;12.418;2023-07-31T11:03:00;96568.91;;;24.89;38.59
50977;BME280;36992;48.200;12.418;2023-07-31T11:05:51;96566.56;;;24.99;38.68
50977;BME280;36992;48.200;12.418;2023-07-31T11:08:21;96572.88;;;24.99;37.09
50977;BME280;36992;48.200;12.418;2023-07-31T11:10:49;96568.94;;;25.04;36.83
50977;BME280;36992;48.200;12.418;2023-07-31T11:13:17;96569.72;;;25.08;36.70
50977;BME280;36992;48.200;12.418;2023-07-31T11:15:43;96563.03;;;25.13;37.15
50977;BME280;36992;48.200;12.418;2023-07-31T11:18:10;96553.97;;;25.16;36.40
50977;BME280;36992;48.200;12.418;2023-07-31T11:20:37;96551.63;;;25.22;37.15
50977;BME280;36992;48.200;12.418;2023-07-31T11:23:06;96546.50;;;25.27;36.75
50977;BME280;36992;48.200;12.418;2023-07-31T11:25:33;96552.41;;;25.29;36.74
50977;BME280;36992;48.200;12.418;2023-07-31T11:28:03;96545.31;;;25.36;36.68
50977;BME280;36992;48.200;12.418;2023-07-31T11:30:30;96544.13;;;25.37;36.05
50977;BME280;36992;48.200;12.418;2023-07-31T11:32:56;96544.53;;;25.39;36.18
50977;BME280;36992;48.200;12.418;2023-07-31T11:35:23;96534.69;;;25.41;36.50
50977;BME280;36992;48.200;12.418;2023-07-31T11:37:49;96541.38;;;25.48;38.13
50977;BME280;36992;48.200;12.418;2023-07-31T11:40:17;96536.66;;;25.55;36.41
50977;BME280;36992;48.200;12.418;2023-07-31T11:42:44;96527.22;;;25.60;37.54
50977;BME280;36992;48.200;12.418;2023-07-31T11:45:11;96525.63;;;25.66;37.06
50977;BME280;36992;48.200;12.418;2023-07-31T11:47:37;96526.78;;;25.72;36.22
50977;BME280;36992;48.200;12.418;2023-07-31T11:50:06;96520.88;;;25.78;36.34
50977;BME280;36992;48.200;12.418;2023-07-31T11:52:37;96515.34;;;25.85;35.63
50977;BME280;36992;48.200;12.418;2023-07-31T11:55:05;96514.53;;;25.88;35.13
50977;BME280;36992;48.200;12.418;2023-07-31T11:57:37;96501.88;;;25.94;36.16
50977;BME280;36992;48.200;12.418;2023-07-31T12:00:07;96495.59;;;25.97;36.31
50977;BME280;36992;48.200;12.418;2023-07-31T12:02:36;96495.56;;;26.01;35.47
50977;BME280;36992;48.200;12.418;2023-07-31T12:05:05;96494.75;;;26.08;36.41
50977;BME280;36992;48.200;12.418;2023-07-31T12:07:43;96494.72;;;26.22;36.63
50977;BME280;36992;48.200;12.418;2023-07-31T12:10:10;96485.25;;;26.23;34.62
50977;BME280;36992;48.200;12.418;2023-07-31T12:12:38;96486.81;;;26.28;35.71
50977;BME280;36992;48.200;12.418;2023-07-31T12:15:14;96471.75;;;26.36;35.48
50977;BME280;36992;48.200;12.418;2023-07-31T12:17:41;96463.47;;;26.40;34.70
50977;BME280;36992;48.200;12.418;2023-07-31T12:20:08;96452.81;;;26.42;35.33
50977;BME280;36992;48.200;12.418;2023-07-31T12:22:35;96453.59;;;26.46;35.58
50977;BME280;36992;48.200;12.418;2023-07-31T12:25:02;96451.16;;;26.52;35.33
50977;BME280;36992;48.200;12.418;2023-07-31T12:27:32;96444.00;;;26.62;35.94
50977;BME280;36992;48.200;12.418;2023-07-31T12:30:00;96438.44;;;26.65;34.57
50977;BME280;36992;48.200;12.418;2023-07-31T12:32:30;96436.81;;;26.72;35.18
50977;BME280;36992;48.200;12.418;2023-07-31T12:34:59;96432.84;;;26.76;34.71
50977;BME280;36992;48.200;12.418;2023-07-31T12:37:26;96424.09;;;26.82;34.54
50977;BME280;36992;48.200;12.418;2023-07-31T12:39:53;96424.88;;;26.86;34.58
50977;BME280;36992;48.200;12.418;2023-07-31T12:42:19;96416.56;;;26.93;35.13
50977;BME280;36992;48.200;12.418;2023-07-31T12:44:46;96403.88;;;26.99;34.44
50977;BME280;36992;48.200;12.418;2023-07-31T12:47:13;96404.16;;;27.09;34.65
50977;BME280;36992;48.200;12.418;2023-07-31T12:49:40;96400.94;;;27.14;35.00
50977;BME280;36992;48.200;12.418;2023-07-31T12:52:07;96395.34;;;27.21;33.95
50977;BME280;36992;48.200;12.418;2023-07-31T12:54:33;96415.81;;;27.27;33.89